Airport Name : Biggin Hill

Other Name : Biggin Hill

ICAO : EGKB

IATA : BQH

FAA :

Latitude : 51.330833

Longitude : 0.0325

Country : United Kingdom

Local Date and Time : 28 Oct 2020 20:45

 

TAF (Terminal Aerodrome Forecast)

TAF EGKB 281702Z 2818/2822 24011KT 9999 FEW035

 

METAR (METeorological Aerodrome Report)

EGKB 282020Z 23011KT 200V260 CAVOK 08/06 Q1005

EGKB 281950Z 23010KT CAVOK 08/06 Q1005

EGKB 281920Z 23010KT 200V260 CAVOK 08/06 Q1005

EGKB 281850Z 23010KT CAVOK 08/06 Q1004

EGKB 281820Z 23010KT 200V260 CAVOK 08/06 Q1004

EGKB 281750Z 23010KT CAVOK 08/06 Q1004

EGKB 281720Z 23011KT CAVOK 07/06 Q1003

EGKB 281650Z 22010KT CAVOK 07/06 Q1003

To Charter a Jet Click here.